Time;durP1;ratioP1;P1;durP2;ratioP2;P2;SDS_P1;SDS_P2;PMS_P1;PMS_P2;Temp;Humidity;BMP_temperature;BMP_pressure;BME280_temperature;BME280_humidity;BME280_pressure;Samples;Min_cycle;Max_cycle;Signal;HPM_P1;HPM_P2
2022/05/07 00:00:47;;;;;;;;;;;;;;;21.03;46.40;99977.03;4451383;32;33964;-70
2022/05/07 00:03:16;;;;;;;;;;;;;;;20.54;47.43;99978.00;4449250;32;34041;-79
2022/05/07 00:05:44;;;;;;;;;;;;;;;20.78;46.97;99974.38;4450754;32;32963;-77
2022/05/07 00:08:11;;;;;;;;;;;;;;;20.42;47.73;99974.78;4447728;32;32750;-78
2022/05/07 00:10:42;;;;;;;;;;;;;;;20.14;48.50;99974.31;4437570;32;34107;-71
2022/05/07 00:13:09;;;;;;;;;;;;;;;20.52;47.48;99974.62;4440943;32;34940;-70
2022/05/07 00:15:37;;;;;;;;;;;;;;;20.75;47.22;99968.47;4441947;32;34218;-71
2022/05/07 00:18:06;;;;;;;;;;;;;;;20.97;46.63;99967.69;4447458;32;34286;-69
2022/05/07 00:20:34;;;;;;;;;;;;;;;21.02;46.56;99976.16;4444143;32;34172;-70
2022/05/07 00:23:02;;;;;;;;;;;;;;;21.08;46.25;99971.88;4450327;32;36314;-70
2022/05/07 00:25:32;;;;;;;;;;;;;;;21.23;45.80;99967.41;4449666;32;34259;-69
2022/05/07 00:28:00;;;;;;;;;;;;;;;21.16;45.99;99974.59;4447028;32;33405;-71
2022/05/07 00:30:28;;;;;;;;;;;;;;;21.06;46.23;99982.09;4444851;32;34850;-70
2022/05/07 00:32:56;;;;;;;;;;;;;;;21.01;46.23;99974.47;4454686;32;33931;-69
2022/05/07 00:35:24;;;;;;;;;;;;;;;21.31;45.57;99983.66;4458300;32;34230;-70
2022/05/07 00:37:52;;;;;;;;;;;;;;;21.18;45.70;99978.81;4452709;32;32186;-68
2022/05/07 00:40:21;;;;;;;;;;;;;;;21.24;45.55;99979.97;4450044;32;33487;-69
2022/05/07 00:42:49;;;;;;;;;;;;;;;21.31;45.25;99980.09;4451694;32;34193;-70
2022/05/07 00:45:17;;;;;;;;;;;;;;;21.38;45.20;99979.25;4449443;32;33621;-69
2022/05/07 00:47:45;;;;;;;;;;;;;;;21.45;44.98;99975.81;4446579;32;34486;-69
2022/05/07 00:53:00;;;;;;;;;;;;;;;21.50;44.73;99976.97;4451005;32;33032;-69
2022/05/07 00:55:28;;;;;;;;;;;;;;;21.25;45.03;99975.38;4448647;32;35066;-69
2022/05/07 00:57:56;;;;;;;;;;;;;;;20.74;46.09;99972.19;4450743;32;33604;-69
2022/05/07 01:00:25;;;;;;;;;;;;;;;20.78;45.92;99974.38;4451448;32;35872;-69
2022/05/07 01:02:52;;;;;;;;;;;;;;;20.42;46.91;99977.50;4452716;32;33863;-68
2022/05/07 01:05:21;;;;;;;;;;;;;;;20.69;46.27;99973.56;4450300;32;34288;-70
2022/05/07 01:07:50;;;;;;;;;;;;;;;20.69;46.25;99964.56;4447691;32;33537;-69
2022/05/07 01:10:18;;;;;;;;;;;;;;;20.48;46.73;99973.22;4451741;32;34570;-68
2022/05/07 01:12:47;;;;;;;;;;;;;;;20.60;46.43;99969.16;4448067;32;33164;-74
2022/05/07 01:15:16;;;;;;;;;;;;;;;20.43;46.77;99972.91;4451301;32;32792;-69
2022/05/07 01:17:45;;;;;;;;;;;;;;;20.23;47.23;99975.16;4450243;32;32911;-69
2022/05/07 01:20:14;;;;;;;;;;;;;;;20.41;46.92;99964.06;4446055;32;35094;-69
2022/05/07 01:22:42;;;;;;;;;;;;;;;20.48;46.65;99973.22;4447953;32;35297;-69
2022/05/07 01:25:11;;;;;;;;;;;;;;;20.53;46.24;99976.31;4441897;32;33788;-68
2022/05/07 01:27:39;;;;;;;;;;;;;;;20.47;46.57;99969.66;4453563;32;33610;-69
2022/05/07 01:30:08;;;;;;;;;;;;;;;20.46;46.49;99967.12;4452305;32;35028;-69
2022/05/07 01:32:36;;;;;;;;;;;;;;;20.29;46.74;99971.75;4448931;32;34017;-69
2022/05/07 01:35:05;;;;;;;;;;;;;;;20.46;46.44;99965.25;4449363;32;33908;-70
2022/05/07 01:37:33;;;;;;;;;;;;;;;20.23;46.81;99964.28;4448080;32;34300;-71
2022/05/07 01:40:01;;;;;;;;;;;;;;;20.14;46.96;99971.59;4447920;32;33951;-69
2022/05/07 01:42:31;;;;;;;;;;;;;;;20.32;46.89;99963.28;4453484;32;32938;-70
2022/05/07 01:45:00;;;;;;;;;;;;;;;20.30;46.71;99968.00;4453173;32;33817;-70
2022/05/07 01:50:16;;;;;;;;;;;;;;;20.25;46.70;99964.94;4447514;32;34308;-69
2022/05/07 01:52:43;;;;;;;;;;;;;;;20.03;47.09;99958.34;4449783;32;34770;-70
2022/05/07 01:55:12;;;;;;;;;;;;;;;20.05;47.06;99959.03;4453831;32;35116;-70
2022/05/07 01:57:41;;;;;;;;;;;;;;;20.11;46.75;99957.50;4450578;32;33285;-71
2022/05/07 02:00:09;;;;;;;;;;;;;;;20.06;46.67;99954.44;4450216;32;35275;-71
2022/05/07 02:02:38;;;;;;;;;;;;;;;19.75;47.57;99955.13;4451010;32;33797;-70
2022/05/07 02:05:08;;;;;;;;;;;;;;;20.07;46.80;99959.72;4450510;32;35051;-70
2022/05/07 02:07:35;;;;;;;;;;;;;;;20.22;46.25;99958.00;4448353;32;34665;-70
2022/05/07 02:10:04;;;;;;;;;;;;;;;20.16;46.51;99961.41;4448419;32;32751;-68
2022/05/07 02:12:32;;;;;;;;;;;;;;;19.92;46.65;99955.97;4444323;32;33495;-70
2022/05/07 02:15:01;;;;;;;;;;;;;;;20.09;46.29;99956.81;4448096;32;33252;-70
2022/05/07 02:17:29;;;;;;;;;;;;;;;20.05;46.57;99950.88;4444749;32;33334;-71
2022/05/07 02:19:57;;;;;;;;;;;;;;;20.07;46.99;99954.28;4449461;32;32303;-70
2022/05/07 02:22:26;;;;;;;;;;;;;;;20.04;46.74;99957.34;4445827;32;33133;-69
2022/05/07 02:24:55;;;;;;;;;;;;;;;20.19;45.97;99954.75;4449183;32;34126;-70
2022/05/07 02:27:23;;;;;;;;;;;;;;;20.28;45.81;99959.16;4448343;32;32153;-73
2022/05/07 02:29:53;;;;;;;;;;;;;;;20.02;46.35;99957.50;4447465;32;34281;-69
2022/05/07 02:32:25;;;;;;;;;;;;;;;19.87;47.03;99952.91;4446938;32;33077;-70
2022/05/07 02:34:53;;;;;;;;;;;;;;;20.18;46.09;99951.19;4450621;32;34571;-69
2022/05/07 02:37:22;;;;;;;;;;;;;;;19.98;46.40;99949.88;4452635;32;35952;-70
2022/05/07 02:39:53;;;;;;;;;;;;;;;20.23;46.03;99953.41;4440622;32;33838;-70
2022/05/07 02:42:36;;;;;;;;;;;;;;;20.38;45.64;99951.66;4447503;32;34983;-69
2022/05/07 02:45:06;;;;;;;;;;;;;;;20.47;45.37;99947.91;4445304;32;34982;-70
2022/05/07 02:47:37;;;;;;;;;;;;;;;20.23;45.91;99954.25;4450849;32;34190;-68
2022/05/07 02:50:06;;;;;;;;;;;;;;;20.17;45.42;99957.66;4447068;32;34034;-68
2022/05/07 02:52:34;;;;;;;;;;;;;;;20.06;46.04;99958.00;4443520;32;34212;-66
2022/05/07 02:55:03;;;;;;;;;;;;;;;20.36;45.36;99947.47;4444532;32;34194;-68
2022/05/07 02:57:31;;;;;;;;;;;;;;;20.19;45.61;99958.34;4450682;32;31958;-69
2022/05/07 03:00:00;;;;;;;;;;;;;;;20.42;45.15;99957.63;4436303;32;34038;-69
2022/05/07 03:02:32;;;;;;;;;;;;;;;20.55;44.95;99952.53;4440952;32;33949;-69
2022/05/07 03:05:00;;;;;;;;;;;;;;;20.36;44.76;99958.31;4442704;32;34555;-67
2022/05/07 03:07:28;;;;;;;;;;;;;;;20.35;45.05;99964.75;4447707;32;32809;-68
2022/05/07 03:09:56;;;;;;;;;;;;;;;20.47;44.75;99960.66;4445035;32;32789;-68
2022/05/07 03:12:28;;;;;;;;;;;;;;;20.46;44.96;99950.81;4438530;32;34129;-66
2022/05/07 03:14:56;;;;;;;;;;;;;;;20.51;44.71;99956.59;4447969;32;32895;-67
2022/05/07 03:17:26;;;;;;;;;;;;;;;20.41;45.29;99956.75;4449122;32;33295;-66
2022/05/07 03:19:56;;;;;;;;;;;;;;;20.46;44.71;99961.69;4447704;32;35282;-67
2022/05/07 03:22:26;;;;;;;;;;;;;;;20.39;45.00;99960.69;4447588;32;34542;-68
2022/05/07 03:24:56;;;;;;;;;;;;;;;20.46;44.75;99961.69;4446558;32;34961;-68
2022/05/07 03:27:28;;;;;;;;;;;;;;;20.43;45.33;99957.44;4449330;32;33517;-68
2022/05/07 03:29:57;;;;;;;;;;;;;;;20.36;44.95;99953.75;4444777;32;33869;-67
2022/05/07 03:32:26;;;;;;;;;;;;;;;20.24;45.12;99958.66;4443892;32;33972;-68
2022/05/07 03:34:57;;;;;;;;;;;;;;;20.13;45.89;99958.19;4448922;32;33588;-69
2022/05/07 03:37:26;;;;;;;;;;;;;;;20.21;45.42;99961.72;4447894;32;33345;-70
2022/05/07 03:39:54;;;;;;;;;;;;;;;19.91;46.41;99965.16;4447800;32;33987;-70
2022/05/07 03:42:23;;;;;;;;;;;;;;;20.21;45.28;99961.72;4445319;32;35340;-69
2022/05/07 03:44:52;;;;;;;;;;;;;;;20.10;45.68;99962.09;4445729;32;32855;-70
2022/05/07 03:47:20;;;;;;;;;;;;;;;19.78;46.60;99958.38;4446381;32;33490;-69
2022/05/07 03:49:49;;;;;;;;;;;;;;;19.71;46.81;99965.50;4448002;32;33764;-70
2022/05/07 03:55:07;;;;;;;;;;;;;;;19.80;46.47;99965.47;4450949;32;32866;-70
2022/05/07 03:57:37;;;;;;;;;;;;;;;19.93;46.49;99969.38;4444248;32;34053;-69
2022/05/07 04:00:05;;;;;;;;;;;;;;;20.21;45.84;99975.31;4448161;32;35110;-70
2022/05/07 04:02:40;;;;;;;;;;;;;;;20.18;46.05;99966.66;4446022;32;35005;-71
2022/05/07 04:05:10;;;;;;;;;;;;;;;20.26;45.82;99969.38;4448370;32;33523;-70
2022/05/07 04:07:40;;;;;;;;;;;;;;;20.34;45.60;99976.66;4445862;32;32561;-71
2022/05/07 04:10:10;;;;;;;;;;;;;;;20.29;45.77;99977.19;4449160;32;34802;-70
2022/05/07 04:12:47;;;;;;;;;;;;;;;20.36;45.63;99982.78;4446275;32;35253;-70
2022/05/07 04:15:20;;;;;;;;;;;;;;;20.31;45.97;99980.56;4448565;32;35345;-71
2022/05/07 04:17:53;;;;;;;;;;;;;;;20.46;45.19;99978.00;4447498;32;31975;-70
2022/05/07 04:20:22;;;;;;;;;;;;;;;19.97;46.77;99978.06;4449102;32;33939;-70
2022/05/07 04:22:53;;;;;;;;;;;;;;;20.29;45.69;99979.91;4447323;32;35840;-70
2022/05/07 04:25:22;;;;;;;;;;;;;;;20.36;45.64;99980.91;4447635;32;34268;-70
2022/05/07 04:27:53;;;;;;;;;;;;;;;20.34;45.64;99982.09;4445284;32;32525;-70
2022/05/07 04:30:23;;;;;;;;;;;;;;;20.21;46.09;99979.91;4448756;32;33796;-70
2022/05/07 04:32:53;;;;;;;;;;;;;;;20.32;45.85;99984.13;4448052;32;34722;-70
2022/05/07 04:35:24;;;;;;;;;;;;;;;20.35;46.04;99983.78;4449195;32;34001;-70
2022/05/07 04:38:06;;;;;;;;;;;;;;;20.34;45.99;99988.38;4448353;32;32131;-70
2022/05/07 04:40:35;;;;;;;;;;;;;;;20.39;45.89;99983.28;4449995;32;33041;-70
2022/05/07 04:43:04;;;;;;;;;;;;;;;20.43;45.40;99987.34;4447601;32;34994;-70
2022/05/07 04:45:34;;;;;;;;;;;;;;;20.01;46.17;99985.69;4448308;32;32917;-70
2022/05/07 04:48:03;;;;;;;;;;;;;;;20.25;45.82;99992.13;4448133;32;32016;-70
2022/05/07 04:50:31;;;;;;;;;;;;;;;19.91;46.46;99979.59;4449086;32;35080;-68
2022/05/07 04:52:59;;;;;;;;;;;;;;;20.13;46.16;99983.50;4445166;32;33891;-69
2022/05/07 04:55:28;;;;;;;;;;;;;;;20.18;45.95;99988.41;4448305;32;35247;-70
2022/05/07 04:57:56;;;;;;;;;;;;;;;19.95;46.80;99980.94;4449486;32;34108;-69
2022/05/07 05:00:24;;;;;;;;;;;;;;;20.16;46.22;99983.16;4448130;32;33987;-70
2022/05/07 05:02:54;;;;;;;;;;;;;;;20.31;45.93;99990.59;4444671;32;34316;-69
2022/05/07 05:05:25;;;;;;;;;;;;;;;20.23;46.27;99989.59;4447445;32;33161;-70
2022/05/07 05:07:56;;;;;;;;;;;;;;;19.92;46.91;99983.16;4440581;32;33600;-74
2022/05/07 05:10:26;;;;;;;;;;;;;;;20.13;47.00;99986.22;4449236;32;33029;-72
2022/05/07 05:12:55;;;;;;;;;;;;;;;20.41;46.26;99991.25;4446722;32;34583;-71
2022/05/07 05:15:24;;;;;;;;;;;;;;;20.37;46.54;99993.47;4448714;32;33140;-73
2022/05/07 05:17:52;;;;;;;;;;;;;;;20.18;46.75;99986.53;4446056;32;33877;-70
2022/05/07 05:20:21;;;;;;;;;;;;;;;20.45;46.44;99989.91;4447163;32;35104;-70
2022/05/07 05:22:54;;;;;;;;;;;;;;;20.71;46.05;99992.44;4447968;32;36564;-70
2022/05/07 05:25:32;;;;;;;;;;;;;;;20.63;45.94;99998.72;4449385;32;32940;-69
2022/05/07 05:28:03;;;;;;;;;;;;;;;20.96;45.13;99990.47;4447106;32;33105;-67
2022/05/07 05:30:34;;;;;;;;;;;;;;;20.54;45.85;100005.19;4444763;32;33012;-68
2022/05/07 05:33:04;;;;;;;;;;;;;;;20.74;45.51;99993.94;4447511;32;34087;-69
2022/05/07 05:35:34;;;;;;;;;;;;;;;20.14;46.79;99996.06;4446502;32;35117;-68
2022/05/07 05:38:03;;;;;;;;;;;;;;;20.16;47.18;99991.31;4441725;32;34513;-70
2022/05/07 05:40:31;;;;;;;;;;;;;;;19.75;47.90;99998.59;4448696;32;33862;-70
2022/05/07 05:43:02;;;;;;;;;;;;;;;19.31;48.86;100002.34;4446338;32;32927;-70
2022/05/07 05:45:31;;;;;;;;;;;;;;;19.67;48.27;100001.28;4446854;32;34349;-71
2022/05/07 05:48:01;;;;;;;;;;;;;;;19.63;48.30;100003.44;4443497;32;34061;-69
2022/05/07 05:50:31;;;;;;;;;;;;;;;19.29;48.83;100000.81;4446622;32;34666;-70
2022/05/07 05:52:59;;;;;;;;;;;;;;;19.18;49.47;100001.12;4444568;32;34044;-69
2022/05/07 05:55:28;;;;;;;;;;;;;;;19.51;48.67;100008.34;4441762;32;34267;-69
2022/05/07 05:57:57;;;;;;;;;;;;;;;19.61;48.55;100010.91;4444142;32;33326;-70
2022/05/07 06:00:27;;;;;;;;;;;;;;;19.12;49.99;100009.91;4449625;32;33043;-69
2022/05/07 06:02:55;;;;;;;;;;;;;;;19.76;48.32;100008.44;4444036;32;34384;-71
2022/05/07 06:05:24;;;;;;;;;;;;;;;19.75;48.49;100001.31;4444977;32;34174;-70
2022/05/07 06:07:52;;;;;;;;;;;;;;;19.95;47.96;99999.94;4450774;32;33616;-69
2022/05/07 06:10:24;;;;;;;;;;;;;;;19.61;48.74;100013.63;4447768;32;34866;-70
2022/05/07 06:12:57;;;;;;;;;;;;;;;19.45;48.87;100013.56;4445301;32;33357;-70
2022/05/07 06:15:25;;;;;;;;;;;;;;;19.07;49.83;100010.41;4449844;32;33903;-70
2022/05/07 06:17:54;;;;;;;;;;;;;;;18.91;50.07;100015.72;4446687;32;34374;-69
2022/05/07 06:20:23;;;;;;;;;;;;;;;19.00;50.17;100015.59;4447624;32;34954;-69
2022/05/07 06:22:51;;;;;;;;;;;;;;;18.25;51.96;100015.28;4447815;32;33730;-69
2022/05/07 06:28:09;;;;;;;;;;;;;;;18.99;51.01;100021.22;4448671;32;32010;-70
2022/05/07 06:30:38;;;;;;;;;;;;;;;19.04;50.01;100014.28;4450145;32;34164;-70
2022/05/07 06:33:06;;;;;;;;;;;;;;;18.42;52.48;100024.38;4445878;32;35415;-70
2022/05/07 06:35:35;;;;;;;;;;;;;;;18.88;50.73;100022.34;4449635;32;35434;-69
2022/05/07 06:38:03;;;;;;;;;;;;;;;18.83;50.96;100019.25;4450543;32;32107;-70
2022/05/07 06:40:32;;;;;;;;;;;;;;;19.23;50.63;100018.62;4446879;32;35713;-69
2022/05/07 06:43:01;;;;;;;;;;;;;;;19.05;50.68;100015.12;4444867;32;33169;-71
2022/05/07 06:45:30;;;;;;;;;;;;;;;19.44;49.86;100017.31;4448183;32;34566;-69
2022/05/07 06:48:00;;;;;;;;;;;;;;;18.90;51.06;100022.19;4446243;32;33323;-69
2022/05/07 06:50:36;;;;;;;;;;;;;;;19.06;50.99;100025.81;4446102;32;33916;-69
2022/05/07 06:53:07;;;;;;;;;;;;;;;19.48;49.36;100022.22;4452381;32;33514;-69
2022/05/07 06:55:59;;;;;;;;;;;;;;;19.14;50.77;100021.47;4452404;32;32901;-68
2022/05/07 06:58:31;;;;;;;;;;;;;;;19.55;49.71;100017.88;4450652;32;33036;-69
2022/05/07 07:01:03;;;;;;;;;;;;;;;19.46;50.36;100016.13;4457181;32;34245;-69
2022/05/07 07:03:34;;;;;;;;;;;;;;;19.03;51.56;100017.16;4450091;32;34224;-68
2022/05/07 07:06:05;;;;;;;;;;;;;;;19.33;50.56;100017.63;4451907;32;32912;-67
2022/05/07 07:08:41;;;;;;;;;;;;;;;18.94;51.56;100016.28;4450620;32;32292;-69
2022/05/07 07:11:16;;;;;;;;;;;;;;;19.26;50.74;100022.84;4450917;32;34000;-69
2022/05/07 07:13:48;;;;;;;;;;;;;;;19.50;50.01;100016.66;4450160;32;34327;-68
2022/05/07 07:16:22;;;;;;;;;;;;;;;19.74;49.53;100016.75;4450881;32;35140;-69
2022/05/07 07:18:54;;;;;;;;;;;;;;;19.60;50.71;100021.94;4456485;32;32107;-70
2022/05/07 07:21:26;;;;;;;;;;;;;;;19.51;50.33;100019.19;4452065;32;33866;-69
2022/05/07 07:23:59;;;;;;;;;;;;;;;19.69;50.19;100024.53;4450063;32;35524;-69
2022/05/07 07:26:31;;;;;;;;;;;;;;;19.97;48.94;100022.38;4447891;32;32581;-70
2022/05/07 07:29:05;;;;;;;;;;;;;;;19.57;50.44;100031.25;4450644;32;33308;-68
2022/05/07 07:31:35;;;;;;;;;;;;;;;19.76;50.82;100022.84;4449582;32;33560;-67
2022/05/07 07:34:12;;;;;;;;;;;;;;;19.86;49.43;100028.13;4451002;32;32906;-70
2022/05/07 07:36:45;;;;;;;;;;;;;;;19.93;49.85;100026.44;4448513;32;33086;-69
2022/05/07 07:39:21;;;;;;;;;;;;;;;19.94;49.33;100035.44;4441093;32;32867;-70
2022/05/07 07:41:57;;;;;;;;;;;;;;;20.23;49.17;100029.53;4449253;32;32881;-70
2022/05/07 07:44:31;;;;;;;;;;;;;;;20.35;48.64;100030.87;4451239;32;33662;-69
2022/05/07 07:49:54;;;;;;;;;;;;;;;19.89;49.54;100025.06;4453248;32;32102;-70
2022/05/07 07:52:29;;;;;;;;;;;;;;;19.60;50.22;100028.22;4448815;32;31868;-71
2022/05/07 07:55:02;;;;;;;;;;;;;;;19.71;50.20;100033.37;4451769;32;33270;-69
2022/05/07 07:57:33;;;;;;;;;;;;;;;20.04;48.33;100036.13;4449811;32;33478;-69
2022/05/07 08:00:02;;;;;;;;;;;;;;;19.78;48.90;100039.00;4450219;32;32094;-69
2022/05/07 08:02:53;;;;;;;;;;;;;;;20.11;47.82;100029.00;4447824;32;34346;-69
2022/05/07 08:05:34;;;;;;;;;;;;;;;19.67;49.63;100031.16;4446714;32;33146;-69
2022/05/07 08:13:53;;;;;;;;;;;;;;;20.46;47.41;100038.66;4449296;32;34359;-69
2022/05/07 08:16:29;;;;;;;;;;;;;;;20.25;48.05;100036.47;4451951;32;33065;-68
2022/05/07 08:19:04;;;;;;;;;;;;;;;19.96;49.01;100036.13;4450545;32;33978;-68
2022/05/07 08:21:33;;;;;;;;;;;;;;;20.13;48.18;100037.84;4446524;32;32035;-67
2022/05/07 08:24:03;;;;;;;;;;;;;;;20.41;48.14;100034.75;4453399;32;32852;-69
2022/05/07 08:26:35;;;;;;;;;;;;;;;20.52;47.12;100034.47;4452033;32;33056;-71
2022/05/07 08:29:06;;;;;;;;;;;;;;;20.49;47.55;100037.47;4448839;32;32958;-69
2022/05/07 08:31:48;;;;;;;;;;;;;;;20.54;47.04;100039.72;4450379;32;33396;-70
2022/05/07 08:34:23;;;;;;;;;;;;;;;21.03;45.85;100032.31;4446942;32;33762;-69
2022/05/07 08:37:09;;;;;;;;;;;;;;;21.31;45.41;100038.13;4448784;32;34285;-70
2022/05/07 08:39:42;;;;;;;;;;;;;;;21.35;45.46;100035.94;4451629;32;34238;-68
2022/05/07 08:42:21;;;;;;;;;;;;;;;21.86;44.65;100041.75;4451636;32;31948;-70
2022/05/07 08:44:53;;;;;;;;;;;;;;;21.38;45.04;100035.59;4450975;32;32914;-71
2022/05/07 08:47:26;;;;;;;;;;;;;;;21.61;45.39;100039.22;4448609;32;33817;-70
2022/05/07 08:49:57;;;;;;;;;;;;;;;21.32;45.11;100044.44;4451195;32;33131;-70
2022/05/07 08:52:29;;;;;;;;;;;;;;;21.39;45.05;100042.72;4445983;32;33234;-70
2022/05/07 08:55:02;;;;;;;;;;;;;;;21.58;44.61;100047.72;4447344;32;33039;-71
2022/05/07 08:57:35;;;;;;;;;;;;;;;21.66;44.56;100041.38;4449456;32;34367;-70
2022/05/07 09:00:10;;;;;;;;;;;;;;;22.15;43.64;100043.78;4448385;32;33701;-70
2022/05/07 09:02:41;;;;;;;;;;;;;;;21.98;43.31;100043.03;4449693;32;32874;-70
2022/05/07 09:05:14;;;;;;;;;;;;;;;22.25;42.82;100047.16;4451693;32;33874;-71
2022/05/07 09:07:53;;;;;;;;;;;;;;;21.96;43.29;100045.13;4447446;32;34262;-70
2022/05/07 09:10:29;;;;;;;;;;;;;;;22.03;43.86;100040.63;4452413;32;34039;-70
2022/05/07 09:13:09;;;;;;;;;;;;;;;22.22;43.06;100046.66;4446739;32;32772;-68
2022/05/07 09:15:48;;;;;;;;;;;;;;;21.94;42.35;100043.59;4442997;32;34364;-71
2022/05/07 09:18:23;;;;;;;;;;;;;;;22.00;41.62;100032.81;4451981;32;33139;-72
2022/05/07 09:23:57;;;;;;;;;;;;;;;22.68;40.74;100033.78;4449358;32;33426;-70
2022/05/07 09:26:39;;;;;;;;;;;;;;;22.91;40.38;100043.78;4451554;32;33964;-71
2022/05/07 09:29:16;;;;;;;;;;;;;;;22.72;40.72;100034.25;4450294;32;34316;-72
2022/05/07 09:32:06;;;;;;;;;;;;;;;22.96;39.68;100036.75;4447130;32;34040;-72
2022/05/07 09:37:40;;;;;;;;;;;;;;;22.67;39.01;100032.09;4447745;32;35259;-70
2022/05/07 09:40:14;;;;;;;;;;;;;;;22.35;40.74;100035.12;4451344;32;33146;-70
2022/05/07 09:42:44;;;;;;;;;;;;;;;22.51;39.65;100022.19;4445041;32;32951;-71
2022/05/07 09:45:17;;;;;;;;;;;;;;;22.39;40.07;100020.94;4451267;32;31917;-70
2022/05/07 09:47:48;;;;;;;;;;;;;;;22.35;39.60;100026.97;4444854;32;35289;-70
2022/05/07 09:50:20;;;;;;;;;;;;;;;22.90;38.16;100021.09;4448518;32;34090;-69
2022/05/07 09:58:31;;;;;;;;;;;;;;;23.55;37.34;100010.41;4451735;32;33012;-72
2022/05/07 10:01:20;;;;;;;;;;;;;;;23.20;39.00;100012.91;4451920;32;34214;-70
2022/05/07 10:04:25;;;;;;;;;;;;;;;22.81;39.44;100003.13;4449856;32;32633;-71
2022/05/07 10:07:16;;;;;;;;;;;;;;;23.74;38.54;99998.03;4399115;32;33294;-69
2022/05/07 10:09:58;;;;;;;;;;;;;;;23.89;35.30;99998.84;4439125;32;34323;-71
2022/05/07 10:12:38;;;;;;;;;;;;;;;23.94;36.06;99993.63;4446946;32;33047;-72
2022/05/07 10:15:16;;;;;;;;;;;;;;;23.97;36.98;99992.38;4439329;32;33407;-69
2022/05/07 10:18:02;;;;;;;;;;;;;;;23.94;36.17;99996.34;4453293;32;33424;-70
2022/05/07 10:20:43;;;;;;;;;;;;;;;24.34;35.69;99989.34;4446916;32;32949;-69
2022/05/07 10:23:16;;;;;;;;;;;;;;;24.17;34.61;99982.47;4449507;32;33265;-70
2022/05/07 10:25:55;;;;;;;;;;;;;;;24.78;34.97;99977.28;4451196;32;32904;-69
2022/05/07 10:28:38;;;;;;;;;;;;;;;24.75;34.34;99982.28;4453157;32;32088;-70
2022/05/07 10:31:18;;;;;;;;;;;;;;;24.88;33.50;99982.41;4450609;32;32846;-70
2022/05/07 10:33:53;;;;;;;;;;;;;;;25.26;33.91;99976.47;4453742;32;33854;-69
2022/05/07 10:36:37;;;;;;;;;;;;;;;25.32;33.21;99983.88;4453727;32;34467;-70
2022/05/07 10:39:11;;;;;;;;;;;;;;;25.20;32.55;99978.16;4453302;32;33024;-70
2022/05/07 10:41:47;;;;;;;;;;;;;;;25.32;33.51;99972.91;4449850;32;34175;-71
2022/05/07 10:44:18;;;;;;;;;;;;;;;25.31;31.85;99974.81;4453108;32;33285;-71
2022/05/07 10:46:49;;;;;;;;;;;;;;;25.47;31.93;99970.03;4450763;32;32859;-70
2022/05/07 10:49:19;;;;;;;;;;;;;;;25.54;32.01;99973.62;4452804;32;33366;-70
2022/05/07 10:51:52;;;;;;;;;;;;;;;25.86;32.21;99963.81;4447549;32;34824;-71
2022/05/07 10:54:26;;;;;;;;;;;;;;;26.10;31.92;99967.00;4451600;32;34217;-69
2022/05/07 10:56:58;;;;;;;;;;;;;;;25.18;32.36;99973.94;4462579;32;34067;-70
2022/05/07 10:59:30;;;;;;;;;;;;;;;25.06;32.52;99969.00;4452950;32;33384;-70
2022/05/07 11:02:06;;;;;;;;;;;;;;;24.50;33.76;99974.56;4443395;32;34408;-70
2022/05/07 11:04:45;;;;;;;;;;;;;;;25.21;33.69;99963.41;4449086;32;34178;-70
2022/05/07 11:07:20;;;;;;;;;;;;;;;25.04;31.86;99967.50;4450708;32;34789;-69
2022/05/07 11:09:53;;;;;;;;;;;;;;;25.20;31.59;99956.25;4446925;32;32417;-70
2022/05/07 11:12:23;;;;;;;;;;;;;;;25.36;33.51;99951.44;4458138;32;35710;-70
2022/05/07 11:14:53;;;;;;;;;;;;;;;25.28;33.48;99960.69;4458783;32;34472;-70
2022/05/07 11:17:29;;;;;;;;;;;;;;;25.35;34.23;99952.50;4453617;32;34651;-70
2022/05/07 11:20:00;;;;;;;;;;;;;;;25.43;33.20;99952.31;4451780;32;33433;-71
2022/05/07 11:22:30;;;;;;;;;;;;;;;24.71;33.94;99951.75;4448658;32;32740;-69
2022/05/07 11:25:05;;;;;;;;;;;;;;;24.48;32.44;99957.50;4443946;32;34924;-71
2022/05/07 11:27:41;;;;;;;;;;;;;;;24.72;32.98;99955.31;4446297;32;34097;-70
2022/05/07 11:30:12;;;;;;;;;;;;;;;25.11;31.31;99943.75;4445444;32;33453;-70
2022/05/07 11:32:45;;;;;;;;;;;;;;;25.53;31.18;99941.81;4449066;32;33365;-70
2022/05/07 11:35:16;;;;;;;;;;;;;;;25.13;32.72;99951.78;4450551;32;32820;-70
2022/05/07 11:37:46;;;;;;;;;;;;;;;24.34;33.96;99953.78;4448721;32;33564;-70
2022/05/07 11:40:14;;;;;;;;;;;;;;;25.38;32.16;99944.69;4452682;32;34045;-72
2022/05/07 11:42:46;;;;;;;;;;;;;;;25.17;33.21;99945.69;4446520;32;32673;-69
2022/05/07 11:45:30;;;;;;;;;;;;;;;25.21;34.00;99943.41;4448788;32;32973;-70
2022/05/07 11:47:59;;;;;;;;;;;;;;;24.99;34.30;99934.41;4451600;32;34871;-72
2022/05/07 11:50:28;;;;;;;;;;;;;;;25.50;32.71;99940.31;4441357;32;34184;-70
2022/05/07 11:52:57;;;;;;;;;;;;;;;24.98;32.56;99930.00;4444177;32;34078;-71
2022/05/07 11:55:28;;;;;;;;;;;;;;;25.24;33.02;99932.87;4440105;32;33341;-70
2022/05/07 11:57:57;;;;;;;;;;;;;;;25.16;33.39;99932.19;4441085;32;32787;-72
2022/05/07 12:00:25;;;;;;;;;;;;;;;25.21;34.05;99927.81;4437560;32;34296;-73
2022/05/07 12:02:58;;;;;;;;;;;;;;;25.46;33.87;99930.00;4442468;32;34317;-73
2022/05/07 12:05:26;;;;;;;;;;;;;;;25.38;33.01;99928.25;4435562;32;35580;-71
2022/05/07 12:07:55;;;;;;;;;;;;;;;25.51;33.56;99924.72;4426728;32;32518;-70
2022/05/07 12:10:22;;;;;;;;;;;;;;;26.02;32.94;99927.75;4445416;32;31824;-71
2022/05/07 12:12:51;;;;;;;;;;;;;;;25.47;31.72;99917.97;4445367;32;33976;-71
2022/05/07 12:17:52;;;;;;;;;;;;;;;24.64;33.59;99920.75;4447844;32;34680;-72
2022/05/07 12:18:09;;;;;;;;;;;;;;;25.09;31.81;99923.94;4439543;32;34218;-72
2022/05/07 12:20:37;;;;;;;;;;;;;;;25.25;30.55;99915.38;4450788;32;33504;-71
2022/05/07 12:31:24;;;;;;;;;;;;;;;25.64;30.56;99904.72;4451746;32;34412;-71
2022/05/07 12:33:52;;;;;;;;;;;;;;;25.71;30.77;99898.16;4442434;32;33494;-71
2022/05/07 12:36:20;;;;;;;;;;;;;;;25.68;30.77;99906.84;4449802;32;35156;-72
2022/05/07 12:38:48;;;;;;;;;;;;;;;25.89;30.48;99897.59;4443534;32;33791;-72
2022/05/07 12:41:16;;;;;;;;;;;;;;;25.92;30.61;99901.81;4440081;32;33231;-69
2022/05/07 12:43:44;;;;;;;;;;;;;;;25.99;29.67;99908.97;4447284;32;35160;-69
2022/05/07 12:46:13;;;;;;;;;;;;;;;25.67;30.00;99905.12;4446568;32;33168;-73
2022/05/07 12:48:42;;;;;;;;;;;;;;;26.21;29.23;99895.88;4448835;32;33814;-73
2022/05/07 12:51:11;;;;;;;;;;;;;;;26.28;28.64;99895.88;4450454;32;33436;-72
2022/05/07 12:53:39;;;;;;;;;;;;;;;26.43;28.51;99891.00;4446844;32;35053;-73
2022/05/07 12:56:07;;;;;;;;;;;;;;;26.15;30.07;99891.25;4447541;32;34234;-70
2022/05/07 12:58:36;;;;;;;;;;;;;;;26.21;29.07;99890.41;4444949;32;33082;-71
2022/05/07 13:01:04;;;;;;;;;;;;;;;26.07;28.46;99877.78;4447434;32;32198;-72
2022/05/07 13:03:32;;;;;;;;;;;;;;;25.64;29.28;99880.03;4446106;32;35105;-70
2022/05/07 13:06:00;;;;;;;;;;;;;;;25.81;28.49;99873.16;4445981;32;34265;-71
2022/05/07 13:08:29;;;;;;;;;;;;;;;25.93;28.62;99874.16;4437451;32;32825;-72
2022/05/07 13:10:57;;;;;;;;;;;;;;;26.20;28.99;99877.75;4447497;32;32096;-70
2022/05/07 13:13:25;;;;;;;;;;;;;;;26.07;28.29;99879.63;4443527;32;33022;-72
2022/05/07 13:15:53;;;;;;;;;;;;;;;25.86;28.67;99878.81;4448079;32;35329;-72
2022/05/07 13:18:21;;;;;;;;;;;;;;;26.02;28.51;99872.06;4442773;32;34347;-71
2022/05/07 13:20:55;;;;;;;;;;;;;;;26.15;28.64;99874.78;4445814;32;34206;-70
2022/05/07 13:23:25;;;;;;;;;;;;;;;26.15;27.95;99865.72;4449130;32;33725;-72
2022/05/07 13:25:54;;;;;;;;;;;;;;;25.92;28.34;99860.69;4454146;32;35280;-72
2022/05/07 13:28:21;;;;;;;;;;;;;;;26.38;27.92;99854.28;4443780;32;32837;-71
2022/05/07 13:30:49;;;;;;;;;;;;;;;25.38;29.08;99856.19;4443023;32;33555;-73
2022/05/07 13:33:17;;;;;;;;;;;;;;;25.57;29.33;99849.91;4439591;32;34100;-70
2022/05/07 13:35:45;;;;;;;;;;;;;;;25.53;29.34;99856.84;4441333;32;33575;-71
2022/05/07 13:38:13;;;;;;;;;;;;;;;25.52;28.70;99863.37;4445911;32;33274;-71
2022/05/07 13:40:42;;;;;;;;;;;;;;;26.20;28.15;99853.06;4442096;32;33489;-71
2022/05/07 13:43:10;;;;;;;;;;;;;;;26.50;26.91;99846.25;4440334;32;32320;-70